createdAt,value
2019-05-02T00:00:15.023Z,18.90
2019-05-02T00:01:15.388Z,18.30
2019-05-02T00:02:15.303Z,18.30
2019-05-02T00:03:15.551Z,17.40
2019-05-02T00:04:19.999Z,19.00
2019-05-02T00:05:16.438Z,18.30
2019-05-02T00:06:16.219Z,17.90
2019-05-02T00:07:20.202Z,19.20
2019-05-02T00:08:16.958Z,17.40
2019-05-02T00:09:17.352Z,18.90
2019-05-02T00:10:19.925Z,18.50
2019-05-02T00:11:17.940Z,18.60
2019-05-02T00:12:18.354Z,18.60
2019-05-02T00:13:18.909Z,18.50
2019-05-02T00:14:18.989Z,18.90
2019-05-02T00:15:18.729Z,18.30
2019-05-02T00:16:18.990Z,19.70
2019-05-02T00:17:20.252Z,19.50
2019-05-02T00:18:19.725Z,19.30
2019-05-02T00:19:19.987Z,18.60
2019-05-02T00:20:21.293Z,18.40
2019-05-02T00:21:20.706Z,17.80
2019-05-02T00:22:20.994Z,19.30
2019-05-02T00:23:22.933Z,19.10
2019-05-02T00:24:21.245Z,17.90
2019-05-02T00:25:21.626Z,18.20
2019-05-02T00:26:24.530Z,19.60
2019-05-02T00:27:22.177Z,19.70
2019-05-02T00:28:22.434Z,20.20
2019-05-02T00:29:23.696Z,19.20
2019-05-02T00:30:22.948Z,18.80
2019-05-02T00:31:23.205Z,19.00
2019-05-02T00:32:23.734Z,19.50
2019-05-02T00:33:23.928Z,19.40
2019-05-02T00:34:24.378Z,18.40
2019-05-02T00:35:24.702Z,18.60
2019-05-02T00:36:25.193Z,18.20
2019-05-02T00:37:26.667Z,20.40
2019-05-02T00:38:26.077Z,21.10
2019-05-02T00:39:25.889Z,19.70
2019-05-02T00:40:27.736Z,19.40
2019-05-02T00:41:26.446Z,20.20
2019-05-02T00:42:26.813Z,18.80
2019-05-02T00:43:28.956Z,19.30
2019-05-02T00:44:27.392Z,20.60
2019-05-02T00:45:27.974Z,20.70
2019-05-02T00:46:30.318Z,20.10
2019-05-02T00:47:27.778Z,20.50
2019-05-02T00:48:28.320Z,20.90
2019-05-02T00:49:30.835Z,21.10
2019-05-02T00:50:28.686Z,21.90
2019-05-02T00:51:29.009Z,20.30
2019-05-02T00:52:32.865Z,21.80
2019-05-02T00:53:29.976Z,21.40
2019-05-02T00:54:30.325Z,22.20
2019-05-02T00:55:33.860Z,20.50
2019-05-02T00:56:31.042Z,20.00
2019-05-02T00:57:31.331Z,20.20
2019-05-02T00:58:32.166Z,22.20
2019-05-02T00:59:31.810Z,22.20
2019-05-02T01:00:32.062Z,24.10
2019-05-02T01:01:32.227Z,23.50
2019-05-02T01:02:35.968Z,24.20
2019-05-02T01:03:32.724Z,22.90
2019-05-02T01:04:33.168Z,23.40
2019-05-02T01:05:38.034Z,24.50
2019-05-02T01:06:33.928Z,24.50
2019-05-02T01:07:34.193Z,24.60
2019-05-02T01:08:35.608Z,24.60
2019-05-02T01:09:34.922Z,24.90
2019-05-02T01:10:35.281Z,25.70
2019-05-02T01:11:35.550Z,24.60
2019-05-02T01:12:39.829Z,24.70
2019-05-02T01:13:36.094Z,24.30
2019-05-02T01:14:36.565Z,25.90
2019-05-02T01:15:39.123Z,24.60
2019-05-02T01:17:37.074Z,24.00
2019-05-02T01:18:41.209Z,25.00
2019-05-02T01:19:37.713Z,25.00
2019-05-02T01:20:37.542Z,25.20
2019-05-02T01:21:38.937Z,23.90
2019-05-02T01:22:38.039Z,24.50
2019-05-02T01:23:38.057Z,24.50
2019-05-02T01:24:39.814Z,25.10
2019-05-02T01:25:38.948Z,25.60
2019-05-02T01:26:39.306Z,26.30
2019-05-02T01:27:41.280Z,25.30
2019-05-02T01:28:39.870Z,25.70
2019-05-02T01:29:40.046Z,25.70
2019-05-02T01:30:42.296Z,26.00
2019-05-02T01:31:40.144Z,26.20
2019-05-02T01:32:40.355Z,24.90
2019-05-02T01:33:41.812Z,26.20
2019-05-02T01:34:40.952Z,24.50
2019-05-02T01:35:40.993Z,25.80
2019-05-02T01:36:42.711Z,24.50
2019-05-02T01:37:41.882Z,24.80
2019-05-02T01:38:42.347Z,24.80
2019-05-02T01:39:43.062Z,25.90
2019-05-02T01:40:42.780Z,23.00
2019-05-02T01:41:43.564Z,24.10
2019-05-02T01:42:44.488Z,23.40
2019-05-02T01:43:43.915Z,23.90
2019-05-02T01:44:43.665Z,21.60
2019-05-02T01:45:46.577Z,24.10
2019-05-02T01:46:44.330Z,21.10
2019-05-02T01:47:44.945Z,22.40
2019-05-02T01:48:45.599Z,23.20
2019-05-02T01:49:45.794Z,22.40
2019-05-02T01:50:46.108Z,22.30
2019-05-02T01:51:47.669Z,22.10
2019-05-02T01:52:46.099Z,23.30
2019-05-02T01:53:46.320Z,23.20
2019-05-02T01:54:47.594Z,23.70
2019-05-02T01:55:47.145Z,24.30
2019-05-02T01:56:47.473Z,23.20
2019-05-02T01:57:47.971Z,24.20
2019-05-02T01:58:48.275Z,23.50
2019-05-02T01:59:48.444Z,23.70
2019-05-02T02:00:48.942Z,24.40
2019-05-02T02:01:53.155Z,23.60
2019-05-02T02:02:49.810Z,24.10
2019-05-02T02:03:50.052Z,25.40
2019-05-02T02:04:52.224Z,25.10
2019-05-02T02:05:50.748Z,23.10
2019-05-02T02:06:50.862Z,23.40
2019-05-02T02:07:55.554Z,24.50
2019-05-02T02:08:51.439Z,25.10
2019-05-02T02:09:51.762Z,23.40
2019-05-02T02:10:56.462Z,24.70
2019-05-02T02:11:52.460Z,25.10
2019-05-02T02:13:03.623Z,24.60
2019-05-02T02:13:53.343Z,25.50
2019-05-02T02:14:55.444Z,24.80
2019-05-02T02:15:54.147Z,24.60
2019-05-02T02:16:54.752Z,27.00
2019-05-02T02:17:54.968Z,25.30
2019-05-02T02:18:58.992Z,24.40
2019-05-02T02:19:55.468Z,24.70
2019-05-02T02:20:55.485Z,25.10
2019-05-02T02:21:57.586Z,26.90
2019-05-02T02:22:55.797Z,26.60
2019-05-02T02:23:56.034Z,26.10
2019-05-02T02:25:00.962Z,26.30
2019-05-02T02:25:56.526Z,27.00
2019-05-02T02:26:56.947Z,25.70
2019-05-02T02:27:59.651Z,25.70
2019-05-02T02:28:57.891Z,27.00
2019-05-02T02:29:57.895Z,26.60
2019-05-02T02:31:04.829Z,26.50
2019-05-02T02:31:58.227Z,26.10
2019-05-02T02:33:00.857Z,27.40
2019-05-02T02:33:58.942Z,24.40
2019-05-02T02:35:03.387Z,25.10
2019-05-02T02:35:59.406Z,25.20
2019-05-02T02:36:59.172Z,25.70
2019-05-02T02:37:59.671Z,25.60
2019-05-02T02:39:00.309Z,24.20
2019-05-02T02:40:00.140Z,26.60
2019-05-02T02:41:00.602Z,27.30
2019-05-02T02:42:01.068Z,25.80
2019-05-02T02:43:13.055Z,25.90
2019-05-02T02:44:02.894Z,24.40
2019-05-02T02:45:01.914Z,26.10
2019-05-02T02:46:01.932Z,26.20
2019-05-02T02:47:01.795Z,26.00
2019-05-02T02:48:02.692Z,26.40
2019-05-02T02:49:02.593Z,24.90
2019-05-02T02:50:05.146Z,25.90
2019-05-02T02:51:02.787Z,24.70
2019-05-02T02:53:02.849Z,25.70
2019-05-02T02:54:05.463Z,24.50
2019-05-02T02:55:03.050Z,25.20
2019-05-02T02:56:03.828Z,25.90
2019-05-02T02:57:03.323Z,24.80
2019-05-02T02:58:04.908Z,24.70
2019-05-02T02:59:03.626Z,25.70
2019-05-02T03:00:07.899Z,25.00
2019-05-02T03:01:04.099Z,25.60
2019-05-02T03:02:09.946Z,23.60
2019-05-02T03:03:04.209Z,25.00
2019-05-02T03:04:09.441Z,24.40
2019-05-02T03:05:04.215Z,24.40
2019-05-02T03:06:07.598Z,26.80
2019-05-02T03:07:04.903Z,25.70
2019-05-02T03:08:06.929Z,25.30
2019-05-02T03:09:05.602Z,24.10
2019-05-02T03:10:06.747Z,23.60
2019-05-02T03:11:05.963Z,24.80
2019-05-02T03:12:06.228Z,25.70
2019-05-02T03:13:06.304Z,25.00
2019-05-02T03:14:09.278Z,25.30
2019-05-02T03:15:06.602Z,25.30
2019-05-02T03:16:09.133Z,25.30
2019-05-02T03:17:07.159Z,23.90
2019-05-02T03:18:07.738Z,23.50
2019-05-02T03:19:07.936Z,24.90
2019-05-02T03:20:08.068Z,26.20
2019-05-02T03:21:13.253Z,25.90
2019-05-02T03:22:08.728Z,28.80
2019-05-02T03:23:15.281Z,27.20
2019-05-02T03:24:09.121Z,27.30
2019-05-02T03:25:09.693Z,27.90
2019-05-02T03:26:14.770Z,28.70
2019-05-02T03:27:09.963Z,28.60
2019-05-02T03:28:17.718Z,28.80
2019-05-02T03:29:10.694Z,29.80
2019-05-02T03:30:29.734Z,29.00
2019-05-02T03:31:22.909Z,31.20
2019-05-02T03:32:16.820Z,31.20
2019-05-02T03:33:12.478Z,30.90
2019-05-02T03:34:11.950Z,30.80
2019-05-02T03:35:18.359Z,31.90
2019-05-02T03:36:26.868Z,30.10
2019-05-02T03:37:13.987Z,31.50
2019-05-02T03:38:13.063Z,31.90
2019-05-02T03:39:15.427Z,31.50
2019-05-02T03:40:13.639Z,32.00
2019-05-02T03:41:20.746Z,31.00
2019-05-02T03:42:14.397Z,32.40
2019-05-02T03:43:18.987Z,31.00
2019-05-02T03:44:25.163Z,32.40
2019-05-02T03:45:16.081Z,31.80
2019-05-02T03:46:20.537Z,31.40
2019-05-02T03:47:16.041Z,32.50
2019-05-02T03:48:18.157Z,31.10
2019-05-02T03:49:16.766Z,32.60
2019-05-02T03:50:16.966Z,32.30
2019-05-02T03:51:21.699Z,32.30
2019-05-02T03:52:17.349Z,31.70
2019-05-02T03:53:25.071Z,33.60
2019-05-02T03:54:19.993Z,34.30
2019-05-02T03:55:23.749Z,32.70
2019-05-02T03:56:18.627Z,34.10
2019-05-02T03:57:24.689Z,33.90
2019-05-02T03:58:19.070Z,34.00
2019-05-02T03:59:19.523Z,34.00
2019-05-02T04:00:21.915Z,32.50
2019-05-02T04:01:20.497Z,33.60
2019-05-02T04:02:21.815Z,34.90
2019-05-02T04:03:20.810Z,34.70
2019-05-02T04:04:22.708Z,33.10
2019-05-02T04:05:21.473Z,33.40
2019-05-02T04:06:23.726Z,32.30
2019-05-02T04:07:21.755Z,33.90
2019-05-02T04:08:22.735Z,32.80
2019-05-02T04:09:22.361Z,32.10
2019-05-02T04:10:22.417Z,31.50
2019-05-02T04:11:22.734Z,34.20
2019-05-02T04:12:22.828Z,33.60
2019-05-02T04:13:23.061Z,32.00
2019-05-02T04:14:36.778Z,31.90
2019-05-02T04:15:28.808Z,31.80
2019-05-02T04:16:24.112Z,31.80
2019-05-02T04:17:29.085Z,32.60
2019-05-02T04:18:24.392Z,33.50
2019-05-02T04:19:28.703Z,32.90
2019-05-02T04:20:25.253Z,31.40
2019-05-02T04:21:26.507Z,29.60
2019-05-02T04:22:25.581Z,31.60
2019-05-02T04:23:27.623Z,31.30
2019-05-02T04:24:29.097Z,32.60
2019-05-02T04:25:27.841Z,31.40
2019-05-02T04:26:26.948Z,32.20
2019-05-02T04:27:27.933Z,34.10
2019-05-02T04:28:27.582Z,31.60
2019-05-02T04:29:31.293Z,32.30
2019-05-02T04:30:28.144Z,32.90
2019-05-02T04:31:31.407Z,32.90
2019-05-02T04:32:28.178Z,35.20
2019-05-02T04:33:29.073Z,33.20
2019-05-02T04:34:29.123Z,35.10
2019-05-02T04:35:34.868Z,36.10
2019-05-02T04:36:29.358Z,36.50
2019-05-02T04:37:34.522Z,35.00
2019-05-02T04:38:39.034Z,37.20
2019-05-02T04:39:30.156Z,35.60
2019-05-02T04:40:35.149Z,36.00
2019-05-02T04:41:34.101Z,36.40
2019-05-02T04:42:31.179Z,35.80
2019-05-02T04:43:31.050Z,33.60
2019-05-02T04:44:44.170Z,33.80
2019-05-02T04:45:50.955Z,34.40
2019-05-02T04:46:32.004Z,34.10
2019-05-02T04:47:32.419Z,32.50
2019-05-02T04:48:34.638Z,32.70
2019-05-02T04:49:35.722Z,33.80
2019-05-02T04:50:33.679Z,32.40
2019-05-02T04:51:33.702Z,32.30
2019-05-02T04:52:40.781Z,32.40
2019-05-02T04:53:41.057Z,31.10
2019-05-02T04:54:34.322Z,31.70
2019-05-02T04:55:34.561Z,29.70
2019-05-02T04:56:39.721Z,30.90
2019-05-02T04:57:38.125Z,29.20
2019-05-02T04:58:39.710Z,29.90
2019-05-02T04:59:35.648Z,29.00
2019-05-02T05:00:35.610Z,29.10
2019-05-02T05:01:45.400Z,29.70
2019-05-02T05:02:39.908Z,28.70
2019-05-02T05:03:37.684Z,28.00
2019-05-02T05:04:41.899Z,29.20
2019-05-02T05:05:40.240Z,29.40
2019-05-02T05:06:38.065Z,30.10
2019-05-02T05:07:41.158Z,30.60
2019-05-02T05:08:38.790Z,29.00
2019-05-02T05:09:39.864Z,31.50
2019-05-02T05:10:41.510Z,30.50
2019-05-02T05:11:38.702Z,29.20
2019-05-02T05:12:41.757Z,31.90
2019-05-02T05:13:39.459Z,31.00
2019-05-02T05:14:43.177Z,30.60
2019-05-02T05:15:48.520Z,32.20
2019-05-02T05:16:45.381Z,32.10
2019-05-02T05:17:41.214Z,30.10
2019-05-02T05:18:43.896Z,28.90
2019-05-02T05:19:41.989Z,31.50
2019-05-02T05:20:45.985Z,32.30
2019-05-02T05:21:42.221Z,31.30
2019-05-02T05:22:44.581Z,32.50
2019-05-02T05:23:42.390Z,32.60
2019-05-02T05:24:42.762Z,31.10
2019-05-02T05:25:43.363Z,31.00
2019-05-02T05:26:43.156Z,30.50
2019-05-02T05:27:43.630Z,29.00
2019-05-02T05:28:44.531Z,29.80
2019-05-02T05:29:48.025Z,30.80
2019-05-02T05:30:46.845Z,0.00
2019-05-02T05:31:45.455Z,29.00
2019-05-02T05:32:47.850Z,29.60
2019-05-02T05:33:47.865Z,29.30
2019-05-02T05:34:47.800Z,28.50
2019-05-02T05:35:48.838Z,29.50
2019-05-02T05:36:48.182Z,29.00
2019-05-02T05:37:51.214Z,30.90
2019-05-02T05:38:47.928Z,30.80
2019-05-02T05:39:52.460Z,29.30
2019-05-02T05:40:50.218Z,29.40
2019-05-02T05:41:52.353Z,28.50
2019-05-02T05:42:48.926Z,30.00
2019-05-02T05:43:53.420Z,30.10
2019-05-02T05:44:49.261Z,30.80
2019-05-02T05:45:56.048Z,31.00
2019-05-02T05:46:49.993Z,32.00
2019-05-02T05:47:52.455Z,31.10
2019-05-02T05:48:50.826Z,31.00
2019-05-02T05:49:52.265Z,33.20
2019-05-02T05:50:51.199Z,30.60
2019-05-02T05:51:54.524Z,33.70
2019-05-02T05:52:52.042Z,33.70
2019-05-02T05:53:52.277Z,33.40
2019-05-02T05:54:52.094Z,33.00
2019-05-02T05:55:53.556Z,36.00
2019-05-02T05:56:52.896Z,34.60
2019-05-02T05:57:59.508Z,35.60
2019-05-02T05:58:53.273Z,35.40
2019-05-02T05:59:53.384Z,36.90
2019-05-02T06:00:55.689Z,36.80
2019-05-02T06:01:54.480Z,35.50
2019-05-02T06:03:01.190Z,37.30
2019-05-02T06:03:54.741Z,37.50
2019-05-02T06:04:59.995Z,39.00
2019-05-02T06:05:55.237Z,40.60
2019-05-02T06:06:59.567Z,39.40
2019-05-02T06:07:57.450Z,39.80
2019-05-02T06:08:55.808Z,42.30
2019-05-02T06:09:55.784Z,46.50
2019-05-02T06:10:56.091Z,48.40
2019-05-02T06:11:56.682Z,49.70
2019-05-02T06:12:56.780Z,46.60
2019-05-02T06:13:57.078Z,47.80
2019-05-02T06:15:01.655Z,46.30
2019-05-02T06:16:02.716Z,45.90
2019-05-02T06:16:58.003Z,49.30
2019-05-02T06:18:00.088Z,52.60
2019-05-02T06:18:58.886Z,54.20
2019-05-02T06:19:59.319Z,56.20
2019-05-02T06:21:03.363Z,58.20
2019-05-02T06:21:59.979Z,56.50
2019-05-02T06:23:01.331Z,56.00
2019-05-02T06:24:01.062Z,57.10
2019-05-02T06:25:01.149Z,58.30
2019-05-02T06:26:00.998Z,60.80
2019-05-02T06:27:01.543Z,58.20
2019-05-02T06:28:05.279Z,59.30
2019-05-02T06:29:01.805Z,57.50
2019-05-02T06:30:02.373Z,59.90
2019-05-02T06:31:07.179Z,57.20
2019-05-02T06:32:02.561Z,57.60
2019-05-02T06:33:02.621Z,58.50
2019-05-02T06:34:07.109Z,60.20
2019-05-02T06:35:02.722Z,60.50
2019-05-02T06:36:02.951Z,59.20
2019-05-02T06:37:03.027Z,58.40
2019-05-02T06:38:03.136Z,59.30
2019-05-02T06:39:03.245Z,60.10
2019-05-02T06:41:03.478Z,59.60
2019-05-02T06:42:04.277Z,58.10
2019-05-02T06:43:09.260Z,60.00
2019-05-02T06:44:04.209Z,57.50
2019-05-02T06:45:04.202Z,59.40
2019-05-02T06:46:15.365Z,56.80
2019-05-02T06:47:05.714Z,57.40
2019-05-02T06:48:05.149Z,56.50
2019-05-02T06:49:05.464Z,57.70
2019-05-02T06:50:05.722Z,57.70
2019-05-02T06:51:10.936Z,59.50
2019-05-02T06:52:06.312Z,57.20
2019-05-02T06:53:09.762Z,57.10
2019-05-02T06:54:07.127Z,57.40
2019-05-02T06:55:07.391Z,57.80
2019-05-02T06:56:12.302Z,58.90
2019-05-02T06:57:07.942Z,56.80
2019-05-02T06:58:08.281Z,61.00
2019-05-02T06:59:08.086Z,59.30
2019-05-02T07:00:08.566Z,58.60
2019-05-02T07:01:08.931Z,60.00
2019-05-02T07:02:08.906Z,60.20
2019-05-02T07:03:10.095Z,60.50
2019-05-02T07:04:09.798Z,60.10
2019-05-02T07:05:10.023Z,60.70
2019-05-02T07:06:10.494Z,61.30
2019-05-02T07:07:13.115Z,59.50
2019-05-02T07:08:13.547Z,60.30
2019-05-02T07:09:11.850Z,60.00
2019-05-02T07:10:11.577Z,57.60
2019-05-02T07:11:11.833Z,57.90
2019-05-02T07:12:14.681Z,58.90
2019-05-02T07:13:15.073Z,59.60
2019-05-02T07:14:14.006Z,58.70
2019-05-02T07:15:13.494Z,62.70
2019-05-02T07:16:29.941Z,57.50
2019-05-02T07:17:13.434Z,59.60
2019-05-02T07:18:13.488Z,59.20
2019-05-02T07:19:16.392Z,58.30
2019-05-02T07:20:13.933Z,59.00
2019-05-02T07:21:17.357Z,58.70
2019-05-02T07:22:14.017Z,59.60
2019-05-02T07:23:16.198Z,61.00
2019-05-02T07:24:14.761Z,59.20
2019-05-02T07:25:15.354Z,60.40
2019-05-02T07:26:20.874Z,61.00
2019-05-02T07:27:15.990Z,59.70
2019-05-02T07:28:16.248Z,59.70
2019-05-02T07:29:17.152Z,56.30
2019-05-02T07:30:17.289Z,58.90
2019-05-02T07:31:17.294Z,58.40
2019-05-02T07:32:19.179Z,59.00
2019-05-02T07:33:18.055Z,60.00
2019-05-02T07:34:18.349Z,59.90
2019-05-02T07:35:19.404Z,55.30
2019-05-02T07:36:19.237Z,60.70
2019-05-02T07:37:19.691Z,60.70
2019-05-02T07:38:25.073Z,58.90
2019-05-02T07:39:20.269Z,59.30
2019-05-02T07:40:20.430Z,57.40
2019-05-02T07:41:24.086Z,57.60
2019-05-02T07:42:21.196Z,58.30
2019-05-02T07:43:22.406Z,59.20
2019-05-02T07:44:21.958Z,58.90
2019-05-02T07:45:22.185Z,56.40
2019-05-02T07:46:22.624Z,57.00
2019-05-02T07:47:23.132Z,58.60
2019-05-02T07:48:23.108Z,59.10
2019-05-02T07:49:26.620Z,56.70
2019-05-02T07:50:23.775Z,57.70
2019-05-02T07:51:24.237Z,60.50
2019-05-02T07:52:24.552Z,56.60
2019-05-02T07:53:25.006Z,57.10
2019-05-02T07:54:26.790Z,57.30
2019-05-02T07:55:25.584Z,55.20
2019-05-02T07:56:26.063Z,56.20
2019-05-02T07:57:30.526Z,55.10
2019-05-02T07:58:26.794Z,57.30
2019-05-02T07:59:26.907Z,57.20
2019-05-02T08:00:27.156Z,56.80
2019-05-02T08:01:27.459Z,55.10
2019-05-02T08:02:27.988Z,54.60
2019-05-02T08:03:29.329Z,56.00
2019-05-02T08:04:28.156Z,53.60
2019-05-02T08:05:28.447Z,54.70
2019-05-02T08:06:35.335Z,56.50
2019-05-02T08:07:34.214Z,53.90
2019-05-02T08:08:31.479Z,54.50
2019-05-02T08:09:30.086Z,56.30
2019-05-02T08:10:30.291Z,56.60
2019-05-02T08:11:32.247Z,55.70
2019-05-02T08:12:30.956Z,54.20
2019-05-02T08:13:31.604Z,55.50
2019-05-02T08:14:34.473Z,54.60
2019-05-02T08:15:31.942Z,57.30
2019-05-02T08:16:32.368Z,54.10
2019-05-02T08:17:32.797Z,53.10
2019-05-02T08:18:33.284Z,53.70
2019-05-02T08:19:37.464Z,54.00
2019-05-02T08:20:33.722Z,56.20
2019-05-02T08:21:34.235Z,52.90
2019-05-02T08:22:34.323Z,54.50
2019-05-02T08:23:34.995Z,55.50
2019-05-02T08:24:37.958Z,56.70
2019-05-02T08:25:35.739Z,58.50
2019-05-02T08:26:36.122Z,54.40
2019-05-02T08:27:36.702Z,55.20
2019-05-02T08:28:36.751Z,58.90
2019-05-02T08:29:37.002Z,56.50
2019-05-02T08:30:40.540Z,55.00
2019-05-02T08:31:36.896Z,56.50
2019-05-02T08:32:37.345Z,56.10
2019-05-02T08:33:37.771Z,57.90
2019-05-02T08:34:38.170Z,55.50
2019-05-02T08:35:38.605Z,55.70
2019-05-02T08:36:38.843Z,55.10
2019-05-02T08:37:40.948Z,56.70
2019-05-02T08:38:39.739Z,53.90
2019-05-02T08:39:40.236Z,55.40
2019-05-02T08:40:42.147Z,54.70
2019-05-02T08:41:40.870Z,53.40
2019-05-02T08:42:41.235Z,53.20
2019-05-02T08:43:44.950Z,54.20
2019-05-02T08:44:50.875Z,51.80
2019-05-02T08:45:42.008Z,51.80
2019-05-02T08:46:46.120Z,50.90
2019-05-02T08:47:42.714Z,51.40
2019-05-02T08:48:43.779Z,55.30
2019-05-02T08:49:43.327Z,53.00
2019-05-02T08:50:43.801Z,54.20
2019-05-02T08:51:44.047Z,53.60
2019-05-02T08:52:44.375Z,53.20
2019-05-02T08:53:44.818Z,52.20
2019-05-02T08:54:45.050Z,54.50
2019-05-02T08:55:46.698Z,53.90
2019-05-02T08:56:45.984Z,51.70
2019-05-02T08:57:45.820Z,56.90
2019-05-02T08:58:49.811Z,54.00
2019-05-02T08:59:46.786Z,55.00
2019-05-02T09:00:47.636Z,50.40
2019-05-02T09:01:49.397Z,54.70
2019-05-02T09:02:47.705Z,52.50
2019-05-02T09:03:55.227Z,54.00
2019-05-02T09:04:58.313Z,55.50
2019-05-02T09:05:49.015Z,54.90
2019-05-02T09:06:53.236Z,55.00
2019-05-02T09:07:49.646Z,56.10
2019-05-02T09:08:51.429Z,55.80
2019-05-02T09:09:50.397Z,53.30
2019-05-02T09:10:50.640Z,53.60
2019-05-02T09:12:04.838Z,54.70
2019-05-02T09:12:52.076Z,55.20
2019-05-02T09:13:52.586Z,53.80
2019-05-02T09:14:52.152Z,53.20
2019-05-02T09:15:54.163Z,50.80
2019-05-02T09:16:52.481Z,54.30
2019-05-02T09:17:56.443Z,50.50
2019-05-02T09:18:54.205Z,53.50
2019-05-02T09:20:02.413Z,51.10
2019-05-02T09:20:56.553Z,53.10
2019-05-02T09:21:54.604Z,52.90
2019-05-02T09:22:56.051Z,55.60
2019-05-02T09:23:55.558Z,53.10
2019-05-02T09:24:55.427Z,54.60
2019-05-02T09:25:55.680Z,52.10
2019-05-02T09:26:55.959Z,50.80
2019-05-02T09:27:56.195Z,50.50
2019-05-02T09:29:01.704Z,53.20
2019-05-02T09:29:56.747Z,51.20
2019-05-02T09:30:57.259Z,49.90
2019-05-02T09:31:57.106Z,50.50
2019-05-02T09:33:02.833Z,48.20
2019-05-02T09:33:57.623Z,49.80
2019-05-02T09:35:02.360Z,50.50
2019-05-02T09:35:57.947Z,50.10
2019-05-02T09:36:58.468Z,48.00
2019-05-02T09:37:58.221Z,51.40
2019-05-02T09:38:58.696Z,48.30
2019-05-02T09:39:59.133Z,48.80
2019-05-02T09:40:59.392Z,50.00
2019-05-02T09:42:02.026Z,49.60
2019-05-02T09:43:02.756Z,50.20
2019-05-02T09:44:00.387Z,49.00
2019-05-02T09:45:02.961Z,50.60
2019-05-02T09:46:02.549Z,51.30
2019-05-02T09:47:02.347Z,50.90
2019-05-02T09:48:05.187Z,49.50
2019-05-02T09:49:02.468Z,49.40
2019-05-02T09:50:02.783Z,48.70
2019-05-02T09:51:04.607Z,49.00
2019-05-02T09:52:03.391Z,47.70
2019-05-02T09:53:02.015Z,49.00
2019-05-02T09:54:06.230Z,47.50
2019-05-02T09:55:02.816Z,47.20
2019-05-02T09:56:02.348Z,49.20
2019-05-02T09:57:02.866Z,48.80
2019-05-02T09:58:02.824Z,48.40
2019-05-02T09:59:22.756Z,47.00
2019-05-02T10:00:02.604Z,48.10
2019-05-02T10:01:03.053Z,46.10
2019-05-02T10:02:03.312Z,45.90
2019-05-02T10:03:03.270Z,0.00
2019-05-02T10:04:03.851Z,48.80
2019-05-02T10:05:03.898Z,45.10
2019-05-02T10:06:03.967Z,46.40
2019-05-02T10:07:03.998Z,45.70
2019-05-02T10:08:07.323Z,45.90
2019-05-02T10:09:04.423Z,44.70
2019-05-02T10:10:06.566Z,44.30
2019-05-02T10:11:04.835Z,42.20
2019-05-02T10:12:05.314Z,43.90
2019-05-02T10:13:05.720Z,42.10
2019-05-02T10:14:06.139Z,43.30
2019-05-02T10:15:06.397Z,41.70
2019-05-02T10:16:06.956Z,41.30
2019-05-02T10:17:07.596Z,39.00
2019-05-02T10:18:11.378Z,39.50
2019-05-02T10:19:10.815Z,42.40
2019-05-02T10:20:08.467Z,43.00
2019-05-02T10:21:12.745Z,41.80
2019-05-02T10:22:08.965Z,40.30
2019-05-02T10:23:14.096Z,41.60
2019-05-02T10:24:09.330Z,42.60
2019-05-02T10:25:11.654Z,40.80
2019-05-02T10:26:12.900Z,43.10
2019-05-02T10:27:12.507Z,37.80
2019-05-02T10:28:12.811Z,38.20
2019-05-02T10:29:12.763Z,40.00
2019-05-02T10:30:15.393Z,38.90
2019-05-02T10:31:12.679Z,38.80
2019-05-02T10:32:13.012Z,38.90
2019-05-02T10:33:12.263Z,39.70
2019-05-02T10:34:16.313Z,38.70
2019-05-02T10:35:13.007Z,38.60
2019-05-02T10:36:19.550Z,37.60
2019-05-02T10:37:13.306Z,38.10
2019-05-02T10:38:15.160Z,36.80
2019-05-02T10:39:15.864Z,37.70
2019-05-02T10:40:17.157Z,38.20
2019-05-02T10:41:13.985Z,38.50
2019-05-02T10:42:14.504Z,36.80
2019-05-02T10:43:14.275Z,37.60
2019-05-02T10:44:14.686Z,35.60
2019-05-02T10:45:16.707Z,37.10
2019-05-02T10:46:14.970Z,36.00
2019-05-02T10:47:15.177Z,36.80
2019-05-02T10:48:24.764Z,34.70
2019-05-02T10:49:16.090Z,34.10
2019-05-02T10:50:16.512Z,34.30
2019-05-02T10:51:16.313Z,35.90
2019-05-02T10:52:21.555Z,36.20
2019-05-02T10:53:17.411Z,35.40
2019-05-02T10:54:20.532Z,34.50
2019-05-02T10:55:17.534Z,34.40
2019-05-02T10:56:17.576Z,35.80
2019-05-02T10:57:17.563Z,35.50
2019-05-02T10:58:17.306Z,35.60
2019-05-02T10:59:17.714Z,35.60
2019-05-02T11:00:18.401Z,34.60
2019-05-02T11:01:18.147Z,35.20
2019-05-02T11:02:18.784Z,36.00
2019-05-02T11:03:18.582Z,33.50
2019-05-02T11:04:18.872Z,36.10
2019-05-02T11:05:22.517Z,35.30
2019-05-02T11:06:19.125Z,36.00
2019-05-02T11:07:22.643Z,35.20
2019-05-02T11:08:19.911Z,36.20
2019-05-02T11:09:24.586Z,34.70
2019-05-02T11:10:21.779Z,35.40
2019-05-02T11:11:21.905Z,35.20
2019-05-02T11:12:25.591Z,33.80
2019-05-02T11:13:21.756Z,34.40
2019-05-02T11:14:22.529Z,33.90
2019-05-02T11:15:22.096Z,34.60
2019-05-02T11:16:22.329Z,34.50
2019-05-02T11:17:22.758Z,33.40
2019-05-02T11:18:39.198Z,32.60
2019-05-02T11:19:22.974Z,33.40
2019-05-02T11:20:23.242Z,31.80
2019-05-02T11:21:23.555Z,34.30
2019-05-02T11:23:23.843Z,33.90
2019-05-02T11:24:23.882Z,35.20
2019-05-02T11:25:24.179Z,33.40
2019-05-02T11:26:25.196Z,32.30
2019-05-02T11:27:25.036Z,33.20
2019-05-02T11:28:25.705Z,32.90
2019-05-02T11:29:25.961Z,35.00
2019-05-02T11:30:26.714Z,33.60
2019-05-02T11:31:26.518Z,34.30
2019-05-02T11:32:27.057Z,34.30
2019-05-02T11:33:27.298Z,33.50
2019-05-02T11:34:27.783Z,33.10
2019-05-02T11:35:28.037Z,32.50
2019-05-02T11:36:28.555Z,31.60
2019-05-02T11:37:28.296Z,33.10
2019-05-02T11:38:29.088Z,32.80
2019-05-02T11:39:37.762Z,31.30
2019-05-02T11:40:29.077Z,31.70
2019-05-02T11:41:31.576Z,33.00
2019-05-02T11:42:29.987Z,32.10
2019-05-02T11:43:29.971Z,31.00
2019-05-02T11:44:32.451Z,31.40
2019-05-02T11:45:32.327Z,30.00
2019-05-02T11:46:32.837Z,31.40
2019-05-02T11:47:32.837Z,33.00
2019-05-02T11:48:32.004Z,33.50
2019-05-02T11:49:32.127Z,32.10
2019-05-02T11:50:35.427Z,33.30
2019-05-02T11:51:32.888Z,32.10
2019-05-02T11:52:37.215Z,32.70
2019-05-02T11:53:33.043Z,33.10
2019-05-02T11:54:33.287Z,31.40
2019-05-02T11:55:33.672Z,31.70
2019-05-02T11:56:33.898Z,27.40
2019-05-02T11:57:34.148Z,25.90
2019-05-02T11:58:34.537Z,25.60
2019-05-02T11:59:34.784Z,27.20
2019-05-02T12:00:35.213Z,30.70
2019-05-02T12:01:39.519Z,31.70
2019-05-02T12:02:35.557Z,29.60
2019-05-02T12:03:37.090Z,29.50
2019-05-02T12:04:36.460Z,28.90
2019-05-02T12:05:39.314Z,30.00
2019-05-02T12:06:37.306Z,30.10
2019-05-02T12:07:37.703Z,30.90
2019-05-02T12:08:39.366Z,29.40
2019-05-02T12:09:38.421Z,29.30
2019-05-02T12:10:38.667Z,31.00
2019-05-02T12:11:38.934Z,29.50
2019-05-02T12:12:39.459Z,30.40
2019-05-02T12:13:39.263Z,32.80
2019-05-02T12:14:39.552Z,30.00
2019-05-02T12:15:42.112Z,31.40
2019-05-02T12:16:40.149Z,31.80
2019-05-02T12:17:41.957Z,32.40
2019-05-02T12:18:41.888Z,31.80
2019-05-02T12:19:42.594Z,33.30
2019-05-02T12:20:42.543Z,32.90
2019-05-02T12:21:42.059Z,32.80
2019-05-02T12:22:42.052Z,33.80
2019-05-02T12:23:42.197Z,33.90
2019-05-02T12:24:45.269Z,33.80
2019-05-02T12:25:42.720Z,35.70
2019-05-02T12:26:42.602Z,32.50
2019-05-02T12:27:42.837Z,34.70
2019-05-02T12:28:43.132Z,33.50
2019-05-02T12:29:43.413Z,33.20
2019-05-02T12:30:43.893Z,32.20
2019-05-02T12:31:47.282Z,33.70
2019-05-02T12:32:44.428Z,32.80
2019-05-02T12:33:44.938Z,31.00
2019-05-02T12:34:44.686Z,33.50
2019-05-02T12:35:44.928Z,32.40
2019-05-02T12:36:45.171Z,30.60
2019-05-02T12:37:47.092Z,28.90
2019-05-02T12:38:46.074Z,29.70
2019-05-02T12:40:46.369Z,26.30
2019-05-02T12:41:47.194Z,24.40
2019-05-02T12:42:47.294Z,25.30
2019-05-02T12:43:47.547Z,27.20
2019-05-02T12:44:47.811Z,27.10
2019-05-02T12:45:48.208Z,26.80
2019-05-02T12:46:48.488Z,27.80
2019-05-02T12:47:48.735Z,26.50
2019-05-02T12:48:49.049Z,27.80
2019-05-02T12:49:49.373Z,27.80
2019-05-02T12:50:49.624Z,27.90
2019-05-02T12:51:49.858Z,28.90
2019-05-02T12:52:52.108Z,29.90
2019-05-02T12:54:52.476Z,30.90
2019-05-02T12:55:52.737Z,29.30
2019-05-02T12:56:52.881Z,29.50
2019-05-02T12:57:52.356Z,26.60
2019-05-02T12:58:52.997Z,26.80
2019-05-02T12:59:52.539Z,25.10
2019-05-02T13:00:53.199Z,24.80
2019-05-02T13:01:52.558Z,24.20